Samedi 05 janvier 2019


VINCENNES - 05/01/2019 (R1) 9 courses - Attelé Monté

Course Nb P. Discipline Distance Dotation Arrivée
C1 14:00 Prix Léon Tacquet 11 Monté 2175 m. 80000 € 5 - 9 - 7 - 11 - 10
C2 14:35 Prix de Châteaugiron 15 Attelé 2850 m. 35000 € 10 - 14 - 12 - 4 - 6
C3 15:15 Prix de Breteuil 18 Attelé 2100 m. 48000 € 17 - 3 - 11 - 5 - 2
C4 15:50 Prix d'Epinal 15 Attelé 2700 m. 39000 € 2 - 14 - 5 - 1 - 4
C5 16:25 Prix de Maisons-Alfort 13 Attelé 2850 m. 63000 € 10 - 7 - 4 - 3 - 8
C6 17:00 Prix de Sully 18 Monté 2200 m. 52000 € 7 - 16 - 13 - 8 - 5
C7 17:35 Prix de Vic-Fezensac 16 Attelé 2850 m. 34000 € 8 - 3 - 11 - 12 - 13
C8 18:10 Prix de Marolles 15 Monté 2200 m. 33000 € 14 - 15 - 7 - 8 - 6
C9 18:45 Prix de Gontaud 15 Attelé 2850 m. 41000 € 10 - 7 - 6 - 8 - 11

DEAUVILLE - 05/01/2019 (R3) 10 courses - Plat

Course Nb P. Discipline Distance Dotation Arrivée
C1 11:45 Prix de Beaufosse 14 Plat 1500 m. 18000 € 7 - 1 - 5 - 8 - 4
C2 12:15 Prix Caro 9 Plat 1900 m. 28000 € 2 - 4 - 9 - 3 - 1
C3 12:45 Prix des Granges 16 Plat 1900 m. 16000 € 14 - 7 - 15 - 13 - 3
C4 13:15 Prix de Saint-Roch 10 Plat 1500 m. 21000 € 2 - 10 - 1 - 5 - 9
C5 13:45 Prix de la Gare de Pointe-Noire 10 Plat 1500 m. 25000 € 8 - 5 - 4 - 10 - 3
C6 14:17 Prix d'Haspel 16 Plat 1900 m. 24000 € 4 - 2 - 3 - 5 - 8
C7 14:52 Prix de la Gare de Da Lat 10 Plat 1500 m. 25000 € 3 - 7 - 4 - 2 - 6
C8 15:32 Prix des Cottages 16 Plat 1900 m. 20000 € 14 - 15 - 9 - 1 - 8
C9 16:07 Prix de Rabodanges 11 Plat 1900 m. 19000 € 5 - 9 - 2 - 6 - 1
C10 16:42 Prix des Manoirs 16 Plat 1900 m. 24000 € 12 - 7 - 8 - 10 - 15

MARSEILLE VIVAUX - 05/01/2019 (R4) 8 courses - Plat

Course Nb P. Discipline Distance Dotation Arrivée
C1 17:17 Prix Lucien et Marcel Crémieux 14 Plat 2000 m. 16000 € 5 - 10 - 6 - 2 - 8
C2 17:52 Prix de Cassis 13 Plat 1500 m. 18000 € 5 - 6 - 11 - 1 - 8
C3 18:27 Prix du Cap Canaille 14 Plat 1500 m. 15000 € 14 - 3 - 12 - 9 - 13
C4 19:00 Prix de Saint-Jérôme 11 Plat 2600 m. 18000 € 5 - 3 - 6 - 10 - 7
C5 19:30 Prix d'Ouverture 8 Plat 1500 m. 17000 € 6 - 8 - 5 - 3 - 1
C6 20:00 Prix des Perces-Neige 8 Plat 1500 m. 14000 € 2 - 4 - 6 - 1 - 3
C7 20:30 Prix du Roy d'Espagne 8 Plat 2000 m. 14000 € 3 - 6 - 4 - 1 - 2
C8 21:00 Prix de Saint-Symphorien 14 Plat 2600 m. 15000 € 2 - 4 - 7 - 1 - 12

Prochaine Course ! 12:05
R2C1 Prix de Montgaroult - Monté - 15 partants